Time;durP1;ratioP1;P1;durP2;ratioP2;P2;SDS_P1;SDS_P2;PMS_P1;PMS_P2;Temp;Humidity;BMP_temperature;BMP_pressure;BME280_temperature;BME280_humidity;BME280_pressure;Samples;Min_cycle;Max_cycle;Signal;HPM_P1;HPM_P2
2021/03/10 00:00:58;;;;;;;19.27;7.50;;;4.00;86.70;;;;;;2080703;28;20032;-82
2021/03/10 00:01:58;;;;;;;16.77;7.85;;;4.00;86.80;;;;;;2080932;28;20465;-82
2021/03/10 00:02:59;;;;;;;16.35;7.30;;;3.90;86.80;;;;;;2072835;28;20041;-82
2021/03/10 00:03:59;;;;;;;13.57;6.90;;;3.90;86.80;;;;;;2064021;28;20065;-82
2021/03/10 00:05:00;;;;;;;13.77;6.80;;;3.90;86.90;;;;;;2064850;28;20023;-82
2021/03/10 00:06:01;;;;;;;15.82;7.00;;;3.90;86.80;;;;;;2073008;28;20483;-82
2021/03/10 00:07:01;;;;;;;15.02;7.20;;;3.90;86.80;;;;;;2089474;28;20055;-82
2021/03/10 00:08:02;;;;;;;13.43;6.80;;;3.90;86.80;;;;;;2062555;28;20403;-82
2021/03/10 00:09:03;;;;;;;13.30;6.65;;;3.90;86.80;;;;;;2056027;28;20400;-82
2021/03/10 00:10:09;;;;;;;11.45;6.35;;;3.90;86.80;;;;;;2073164;28;20044;-82
2021/03/10 00:11:09;;;;;;;12.77;6.78;;;3.90;86.80;;;;;;2081435;28;20028;-82
2021/03/10 00:12:10;;;;;;;11.68;6.63;;;3.90;86.80;;;;;;2080236;28;20053;-82
2021/03/10 00:13:11;;;;;;;11.00;6.50;;;3.90;86.80;;;;;;2072170;28;20482;-82
2021/03/10 00:14:11;;;;;;;11.63;6.45;;;3.80;86.90;;;;;;2072506;28;20091;-82
2021/03/10 00:15:13;;;;;;;10.43;5.88;;;3.80;86.90;;;;;;2086459;28;20017;-83
2021/03/10 00:16:14;;;;;;;10.52;5.80;;;3.80;86.90;;;;;;2081076;28;20324;-82
2021/03/10 00:17:15;;;;;;;9.95;6.15;;;3.80;86.90;;;;;;2072863;28;20388;-82
2021/03/10 00:18:15;;;;;;;10.52;6.10;;;3.80;87.00;;;;;;2081079;28;20029;-82
2021/03/10 00:19:16;;;;;;;8.65;5.78;;;3.80;87.10;;;;;;2064298;28;20030;-83
2021/03/10 00:20:18;;;;;;;10.77;5.97;;;3.80;87.00;;;;;;2077637;28;20415;-82
2021/03/10 00:21:19;;;;;;;10.32;5.75;;;3.70;87.00;;;;;;2081105;28;20064;-82
2021/03/10 00:22:20;;;;;;;9.25;5.65;;;3.70;87.00;;;;;;2073007;28;20014;-83
2021/03/10 00:23:20;;;;;;;9.52;5.70;;;3.70;87.10;;;;;;2072707;28;20080;-83
2021/03/10 00:24:21;;;;;;;9.43;5.90;;;3.70;87.10;;;;;;2072412;28;20121;-83
2021/03/10 00:25:22;;;;;;;9.30;5.75;;;3.70;87.10;;;;;;2075757;28;20030;-82
2021/03/10 00:26:22;;;;;;;9.70;5.88;;;3.80;87.20;;;;;;2069299;28;20052;-83
2021/03/10 00:27:23;;;;;;;9.27;5.68;;;3.80;87.10;;;;;;2073672;28;20030;-82
2021/03/10 00:28:24;;;;;;;9.23;5.78;;;3.80;87.10;;;;;;2072960;28;20069;-82
2021/03/10 00:29:25;;;;;;;10.55;5.90;;;3.80;87.00;;;;;;2064754;28;20448;-83
2021/03/10 00:30:25;;;;;;;10.20;5.80;;;3.80;87.00;;;;;;2070368;28;20061;-82
2021/03/10 00:31:26;;;;;;;8.75;5.80;;;3.80;86.90;;;;;;2068335;28;20042;-82
2021/03/10 00:32:28;;;;;;;8.93;5.88;;;3.90;86.90;;;;;;2071264;28;20026;-82
2021/03/10 00:33:28;;;;;;;7.97;5.25;;;3.90;86.90;;;;;;2073008;28;20038;-82
2021/03/10 00:34:29;;;;;;;9.10;5.72;;;3.90;86.90;;;;;;2064116;28;20034;-82
2021/03/10 00:35:30;;;;;;;9.05;5.97;;;3.90;86.90;;;;;;2071961;28;20030;-82
2021/03/10 00:36:30;;;;;;;9.10;5.55;;;4.00;87.00;;;;;;2072571;28;20065;-82
2021/03/10 00:37:31;;;;;;;9.88;5.80;;;4.00;86.80;;;;;;2073092;28;20538;-82
2021/03/10 00:38:32;;;;;;;10.07;6.22;;;4.00;86.80;;;;;;2074521;28;20038;-82
2021/03/10 00:39:32;;;;;;;9.27;5.93;;;4.00;86.70;;;;;;2056679;28;20485;-82
2021/03/10 00:40:33;;;;;;;9.18;5.55;;;4.00;86.70;;;;;;2064638;28;20515;-82
2021/03/10 00:41:33;;;;;;;8.57;5.20;;;4.10;86.70;;;;;;2072150;28;20034;-82
2021/03/10 00:42:34;;;;;;;9.15;5.88;;;4.10;86.60;;;;;;2072612;28;20116;-82
2021/03/10 00:43:35;;;;;;;7.70;5.30;;;4.10;86.60;;;;;;2063703;28;20559;-82
2021/03/10 00:44:35;;;;;;;9.00;6.22;;;4.10;86.60;;;;;;2072028;28;20030;-82
2021/03/10 00:45:36;;;;;;;9.65;5.90;;;4.10;86.60;;;;;;2071904;28;20392;-82
2021/03/10 00:46:36;;;;;;;9.32;5.60;;;4.20;86.70;;;;;;2069315;28;20069;-82
2021/03/10 00:47:37;;;;;;;9.43;5.40;;;4.20;87.20;;;;;;2071696;28;20030;-82
2021/03/10 00:48:37;;;;;;;8.65;5.30;;;4.20;86.60;;;;;;2072990;28;20033;-82
2021/03/10 00:49:39;;;;;;;8.52;5.75;;;4.20;86.60;;;;;;2072621;28;20022;-82
2021/03/10 00:50:40;;;;;;;9.80;5.68;;;4.20;86.50;;;;;;2073443;28;20163;-82
2021/03/10 00:51:40;;;;;;;9.10;5.78;;;4.20;86.50;;;;;;2072790;28;20030;-82
2021/03/10 00:52:41;;;;;;;9.10;6.07;;;4.20;86.50;;;;;;2070004;28;20220;-83
2021/03/10 00:53:42;;;;;;;9.82;6.20;;;4.20;86.50;;;;;;2072220;28;20586;-82
2021/03/10 00:54:42;;;;;;;9.55;6.07;;;4.20;86.50;;;;;;2078385;28;20047;-82
2021/03/10 00:55:43;;;;;;;8.43;5.60;;;4.20;86.50;;;;;;2064311;28;20221;-82
2021/03/10 00:56:44;;;;;;;9.02;5.82;;;4.20;86.50;;;;;;2071986;28;20439;-82
2021/03/10 00:57:44;;;;;;;9.73;5.95;;;4.20;86.60;;;;;;2067739;28;20037;-82
2021/03/10 00:58:48;;;;;;;9.05;5.85;;;4.10;86.60;;;;;;2068422;28;20044;-82
2021/03/10 00:59:49;;;;;;;9.18;6.20;;;4.10;86.60;;;;;;2081428;28;20049;-82
2021/03/10 01:00:50;;;;;;;9.50;6.45;;;4.10;86.70;;;;;;2080520;28;20060;-83
2021/03/10 01:01:51;;;;;;;8.23;5.47;;;4.00;86.70;;;;;;2080785;28;20046;-82
2021/03/10 01:02:51;;;;;;;9.82;6.32;;;4.00;86.80;;;;;;2080238;28;20199;-82
2021/03/10 01:03:52;;;;;;;8.73;5.70;;;4.00;87.40;;;;;;2056787;28;20142;-82
2021/03/10 01:04:52;;;;;;;9.57;6.20;;;4.00;86.90;;;;;;2061830;28;20038;-82
2021/03/10 01:05:53;;;;;;;8.90;6.10;;;3.90;87.00;;;;;;2066262;28;20118;-82
2021/03/10 01:06:54;;;;;;;9.52;6.00;;;3.90;87.10;;;;;;2064579;28;20031;-82
2021/03/10 01:07:54;;;;;;;9.32;6.05;;;3.90;87.10;;;;;;2056390;28;20035;-82
2021/03/10 01:08:55;;;;;;;9.70;6.10;;;3.90;87.20;;;;;;2062555;28;20508;-82
2021/03/10 01:09:55;;;;;;;9.25;5.97;;;3.90;87.30;;;;;;2081965;28;20025;-81
2021/03/10 01:10:56;;;;;;;8.73;5.68;;;3.80;87.30;;;;;;2082936;28;20017;-82
2021/03/10 01:11:57;;;;;;;7.72;5.38;;;3.80;87.30;;;;;;2075120;28;20084;-82
2021/03/10 01:12:57;;;;;;;9.55;6.03;;;3.80;87.40;;;;;;2072316;28;20428;-82
2021/03/10 01:13:58;;;;;;;8.40;5.78;;;3.80;87.40;;;;;;2063957;28;20035;-83
2021/03/10 01:14:59;;;;;;;9.20;5.72;;;3.80;87.40;;;;;;2072386;28;20030;-83
2021/03/10 01:16:00;;;;;;;8.80;5.55;;;3.80;87.40;;;;;;2064480;28;20117;-83
2021/03/10 01:17:00;;;;;;;9.32;6.05;;;3.80;87.40;;;;;;2056584;28;20070;-82
2021/03/10 01:18:01;;;;;;;8.82;6.13;;;3.80;87.50;;;;;;2077848;28;20049;-82
2021/03/10 01:19:03;;;;;;;7.93;5.22;;;3.80;87.50;;;;;;2080937;28;20551;-80
2021/03/10 01:20:09;;;;;;;9.02;6.18;;;3.80;87.50;;;;;;2072436;28;20025;-80
2021/03/10 01:21:10;;;;;;;9.40;5.70;;;3.80;87.60;;;;;;2064423;28;20030;-80
2021/03/10 01:22:11;;;;;;;8.02;5.40;;;3.70;87.40;;;;;;2069554;28;20030;-80
2021/03/10 01:23:11;;;;;;;9.75;6.30;;;3.80;87.50;;;;;;2063191;28;20495;-80
2021/03/10 01:24:12;;;;;;;9.57;6.03;;;3.70;87.40;;;;;;2055901;28;20038;-80
2021/03/10 01:25:14;;;;;;;8.38;5.65;;;3.70;87.40;;;;;;2055519;28;20023;-80
2021/03/10 01:26:14;;;;;;;8.95;5.72;;;3.70;87.50;;;;;;2071877;28;20041;-80
2021/03/10 01:27:17;;;;;;;8.65;5.70;;;3.70;87.40;;;;;;2072624;28;20029;-81
2021/03/10 01:28:17;;;;;;;9.10;6.20;;;3.70;87.50;;;;;;2071394;28;20084;-80
2021/03/10 01:29:20;;;;;;;9.23;5.97;;;3.60;87.40;;;;;;2072524;28;20448;-80
2021/03/10 01:30:22;;;;;;;10.15;6.70;;;3.60;87.40;;;;;;2076087;28;20041;-80
2021/03/10 01:31:23;;;;;;;9.73;5.60;;;3.60;87.50;;;;;;2080452;28;20096;-81
2021/03/10 01:32:23;;;;;;;10.05;6.07;;;3.60;87.50;;;;;;2072221;28;20038;-80
2021/03/10 01:33:24;;;;;;;10.90;6.40;;;3.60;87.60;;;;;;2072051;28;20033;-80
2021/03/10 01:34:25;;;;;;;10.43;6.60;;;3.60;87.60;;;;;;2075985;28;20452;-80
2021/03/10 01:35:25;;;;;;;10.13;6.63;;;3.60;87.60;;;;;;2065288;28;20104;-80
2021/03/10 01:36:26;;;;;;;9.60;6.03;;;3.60;87.70;;;;;;2064169;28;20030;-80
2021/03/10 01:37:27;;;;;;;9.75;6.07;;;3.60;88.30;;;;;;2068014;28;20080;-80
2021/03/10 01:38:27;;;;;;;10.80;6.80;;;3.60;87.70;;;;;;2062508;28;20066;-80
2021/03/10 01:39:28;;;;;;;9.60;6.03;;;3.60;87.70;;;;;;2063122;28;20026;-80
2021/03/10 01:40:29;;;;;;;10.38;6.25;;;3.60;87.80;;;;;;2080875;28;20552;-81
2021/03/10 01:41:30;;;;;;;9.30;6.00;;;3.50;87.70;;;;;;2081027;28;20034;-80
2021/03/10 01:42:30;;;;;;;10.07;6.63;;;3.50;87.70;;;;;;2075530;28;20025;-80
2021/03/10 01:43:31;;;;;;;10.05;6.45;;;3.50;87.70;;;;;;2064071;28;20194;-80
2021/03/10 01:44:33;;;;;;;9.75;6.32;;;3.50;88.30;;;;;;2072550;28;20033;-81
2021/03/10 01:45:35;;;;;;;10.20;6.47;;;3.50;87.80;;;;;;2063218;28;20030;-80
2021/03/10 01:46:42;;;;;;;9.40;6.25;;;3.50;87.80;;;;;;2071842;28;20400;-80
2021/03/10 01:47:45;;;;;;;10.02;6.38;;;3.50;87.80;;;;;;2076239;28;20450;-80
2021/03/10 01:48:47;;;;;;;10.45;6.75;;;3.50;87.80;;;;;;2071917;28;20384;-80
2021/03/10 01:49:48;;;;;;;9.52;6.25;;;3.50;87.80;;;;;;2080995;28;20365;-80
2021/03/10 01:50:49;;;;;;;9.18;5.82;;;3.50;87.80;;;;;;2081093;28;20047;-80
2021/03/10 01:51:49;;;;;;;9.95;6.63;;;3.40;87.80;;;;;;2080528;28;20478;-80
2021/03/10 01:52:52;;;;;;;9.90;6.32;;;3.40;87.80;;;;;;2057872;28;20031;-80
2021/03/10 01:53:53;;;;;;;10.70;6.60;;;3.40;87.80;;;;;;2067443;28;20491;-80
2021/03/10 01:54:53;;;;;;;10.73;6.75;;;3.40;87.90;;;;;;2074081;28;20030;-80
2021/03/10 01:55:56;;;;;;;10.15;6.55;;;3.40;87.90;;;;;;2067613;28;20030;-80
2021/03/10 01:56:57;;;;;;;10.57;6.35;;;3.40;87.90;;;;;;2064628;28;20030;-80
2021/03/10 01:57:58;;;;;;;10.10;6.35;;;3.40;88.00;;;;;;2071979;28;20344;-79
2021/03/10 01:58:59;;;;;;;10.10;6.78;;;3.40;88.10;;;;;;2087964;28;20021;-80
2021/03/10 02:00:00;;;;;;;9.65;6.38;;;3.30;88.00;;;;;;2089290;28;20025;-80
2021/03/10 02:01:00;;;;;;;10.57;6.68;;;3.30;88.00;;;;;;2081401;28;20160;-80
2021/03/10 02:02:01;;;;;;;9.38;6.35;;;3.30;88.10;;;;;;2072403;28;20097;-80
2021/03/10 02:03:02;;;;;;;10.90;6.93;;;3.30;88.10;;;;;;2060668;28;20058;-80
2021/03/10 02:04:04;;;;;;;9.27;6.10;;;3.40;88.20;;;;;;2066010;28;20030;-80
2021/03/10 02:05:07;;;;;;;10.43;6.18;;;3.30;88.20;;;;;;2081186;28;20527;-80
2021/03/10 02:06:11;;;;;;;10.40;6.43;;;3.30;88.20;;;;;;2078339;28;20517;-80
2021/03/10 02:07:17;;;;;;;9.82;6.32;;;3.30;88.20;;;;;;2078425;28;20511;-81
2021/03/10 02:08:55;;;;;;;10.57;6.38;;;3.30;88.20;;;;;;2081857;28;20076;-80
2021/03/10 02:10:12;;;;;;;9.48;6.10;;;3.30;88.20;;;;;;2071910;28;20038;-80
2021/03/10 02:11:32;;;;;;;9.38;5.93;;;3.30;88.20;;;;;;2083220;28;20446;-80
2021/03/10 02:12:51;;;;;;;9.77;6.28;;;3.30;88.20;;;;;;2090288;28;20179;-80
2021/03/10 02:14:30;;;;;;;10.18;6.20;;;3.20;88.10;;;;;;2072774;28;20034;-80
2021/03/10 02:15:49;;;;;;;10.50;6.40;;;3.30;88.10;;;;;;2065385;28;20041;-80
2021/03/10 02:16:57;;;;;;;9.77;5.85;;;3.30;88.10;;;;;;2082060;28;20080;-82
2021/03/10 02:18:04;;;;;;;9.13;5.97;;;3.20;88.00;;;;;;2082032;28;20483;-82
2021/03/10 02:19:16;;;;;;;9.98;6.18;;;3.20;88.00;;;;;;2082363;28;20497;-82
2021/03/10 02:20:34;;;;;;;9.38;5.95;;;3.20;88.00;;;;;;2084330;28;20364;-82
2021/03/10 02:22:07;;;;;;;9.77;5.80;;;3.20;88.00;;;;;;2077532;28;20041;-82
2021/03/10 02:23:25;;;;;;;9.23;5.68;;;3.20;88.00;;;;;;2049727;28;20275;-81
2021/03/10 02:25:00;;;;;;;11.48;6.57;;;3.10;88.00;;;;;;2078440;28;20030;-82
2021/03/10 02:26:18;;;;;;;10.27;6.30;;;3.10;88.00;;;;;;2074885;28;20061;-82
2021/03/10 02:27:46;;;;;;;9.32;5.57;;;3.10;88.10;;;;;;2082381;28;20036;-82
2021/03/10 02:28:47;;;;;;;9.52;5.80;;;3.10;88.10;;;;;;2090723;28;20029;-82
2021/03/10 02:29:48;;;;;;;10.13;6.05;;;3.10;88.10;;;;;;2087234;28;20017;-82
2021/03/10 02:30:51;;;;;;;9.55;6.25;;;3.00;88.10;;;;;;2074610;28;20543;-82
2021/03/10 02:31:55;;;;;;;10.43;6.45;;;3.10;88.80;;;;;;2061257;28;20054;-82
2021/03/10 02:33:04;;;;;;;10.15;6.00;;;3.00;88.20;;;;;;2074694;28;20026;-82
2021/03/10 02:34:07;;;;;;;9.77;6.20;;;3.10;88.30;;;;;;2074967;28;20018;-82
2021/03/10 02:35:09;;;;;;;10.65;6.53;;;3.00;88.30;;;;;;2082553;28;20014;-82
2021/03/10 02:36:14;;;;;;;10.52;6.72;;;3.00;88.30;;;;;;2073194;28;20026;-82
2021/03/10 02:37:16;;;;;;;10.45;5.95;;;3.10;88.40;;;;;;2069422;28;20022;-82
2021/03/10 02:38:23;;;;;;;10.48;6.75;;;3.00;88.40;;;;;;2082624;28;20480;-82
2021/03/10 02:39:24;;;;;;;11.40;6.57;;;3.00;88.50;;;;;;2073589;28;20124;-82
2021/03/10 02:40:27;;;;;;;9.73;6.25;;;3.10;88.50;;;;;;2070484;28;20068;-82
2021/03/10 02:41:33;;;;;;;10.68;6.75;;;3.10;88.50;;;;;;2077580;28;20045;-82
2021/03/10 02:42:34;;;;;;;10.45;6.88;;;3.10;88.50;;;;;;2074811;28;20073;-82
2021/03/10 02:43:36;;;;;;;10.27;6.60;;;3.10;88.60;;;;;;2064816;28;20176;-83
2021/03/10 02:44:38;;;;;;;10.77;6.60;;;3.10;88.60;;;;;;2070476;28;20089;-82
2021/03/10 02:45:39;;;;;;;8.85;6.05;;;3.10;88.50;;;;;;2082064;28;20026;-82
2021/03/10 02:46:42;;;;;;;10.07;6.63;;;3.20;88.60;;;;;;2089231;28;20025;-82
2021/03/10 02:47:43;;;;;;;10.02;6.40;;;3.20;88.60;;;;;;2088379;28;20104;-82
2021/03/10 02:48:45;;;;;;;10.88;7.00;;;3.20;88.50;;;;;;2081958;28;20061;-82
2021/03/10 02:49:45;;;;;;;10.93;7.00;;;3.20;88.50;;;;;;2073384;28;20061;-82
2021/03/10 02:50:48;;;;;;;9.45;6.40;;;3.20;88.40;;;;;;2074783;28;20097;-82
2021/03/10 02:51:48;;;;;;;11.68;6.85;;;3.30;88.50;;;;;;2077320;28;20030;-83
2021/03/10 02:52:51;;;;;;;9.93;6.53;;;3.30;88.50;;;;;;2076195;28;20026;-82
2021/03/10 02:53:52;;;;;;;11.10;6.75;;;3.30;88.40;;;;;;2068609;28;20030;-83
2021/03/10 02:54:52;;;;;;;10.40;6.57;;;3.30;88.40;;;;;;2075325;28;20030;-82
2021/03/10 02:55:54;;;;;;;10.48;6.43;;;3.30;88.30;;;;;;2076413;28;20030;-82
2021/03/10 02:56:54;;;;;;;11.73;7.18;;;3.40;88.30;;;;;;2069072;28;20069;-82
2021/03/10 02:57:55;;;;;;;10.48;6.60;;;3.40;88.30;;;;;;2065378;28;20045;-82
2021/03/10 02:58:56;;;;;;;11.00;7.55;;;3.40;88.30;;;;;;2073514;28;20508;-82
2021/03/10 03:00:06;;;;;;;10.25;6.60;;;3.40;88.30;;;;;;2062683;28;20027;-82
2021/03/10 03:01:08;;;;;;;10.93;6.72;;;3.40;88.30;;;;;;2065445;28;20022;-82
2021/03/10 03:02:09;;;;;;;10.82;6.72;;;3.50;88.30;;;;;;2073545;28;20129;-82
2021/03/10 03:03:11;;;;;;;9.63;6.15;;;3.50;88.20;;;;;;2065403;28;20528;-82
2021/03/10 03:04:11;;;;;;;10.75;6.30;;;3.50;88.20;;;;;;2064724;28;20046;-82
2021/03/10 03:05:12;;;;;;;9.93;6.28;;;3.50;88.10;;;;;;2086361;28;20067;-82
2021/03/10 03:06:13;;;;;;;9.73;6.60;;;3.50;88.20;;;;;;2081797;28;20132;-82
2021/03/10 03:07:14;;;;;;;9.75;6.50;;;3.50;88.20;;;;;;2073006;28;20018;-82
2021/03/10 03:08:15;;;;;;;9.60;6.38;;;3.50;88.20;;;;;;2067605;28;21297;-82
2021/03/10 03:09:15;;;;;;;10.57;6.65;;;3.50;88.20;;;;;;2057484;28;20019;-82
2021/03/10 03:10:20;;;;;;;10.60;6.78;;;3.50;88.30;;;;;;2065034;28;20101;-82
2021/03/10 03:11:20;;;;;;;10.20;6.80;;;3.50;88.30;;;;;;2065580;28;20029;-82
2021/03/10 03:12:21;;;;;;;11.20;6.45;;;3.50;88.30;;;;;;2072584;28;20030;-82
2021/03/10 03:13:25;;;;;;;12.15;7.45;;;3.50;88.30;;;;;;2065401;28;20460;-82
2021/03/10 03:14:28;;;;;;;10.68;6.55;;;3.50;88.30;;;;;;2065701;28;20128;-82
2021/03/10 03:15:29;;;;;;;11.18;6.72;;;3.50;88.30;;;;;;2072874;28;20029;-82
2021/03/10 03:16:31;;;;;;;10.85;7.28;;;3.50;88.30;;;;;;2065498;28;20436;-82
2021/03/10 03:17:33;;;;;;;10.73;6.70;;;3.50;88.30;;;;;;2056685;28;20112;-82
2021/03/10 03:18:35;;;;;;;10.13;6.75;;;3.50;88.30;;;;;;2064508;28;20018;-82
2021/03/10 03:19:36;;;;;;;10.63;6.68;;;3.50;88.30;;;;;;2072456;28;20030;-83
2021/03/10 03:20:37;;;;;;;10.27;6.72;;;3.50;88.30;;;;;;2086955;28;20033;-82
2021/03/10 03:21:38;;;;;;;12.07;7.13;;;3.60;88.30;;;;;;2073377;28;20085;-83
2021/03/10 03:22:43;;;;;;;11.32;6.97;;;3.60;88.40;;;;;;2073731;28;20022;-83
2021/03/10 03:23:44;;;;;;;11.50;7.30;;;3.60;88.40;;;;;;2090622;28;20036;-82
2021/03/10 03:24:48;;;;;;;9.65;6.68;;;3.60;88.30;;;;;;2065971;28;20428;-82
2021/03/10 03:25:51;;;;;;;11.50;6.78;;;3.60;88.30;;;;;;2065186;28;20023;-83
2021/03/10 03:26:53;;;;;;;10.73;6.68;;;3.70;88.30;;;;;;2057422;28;20019;-82
2021/03/10 03:28:00;;;;;;;10.68;7.00;;;3.70;88.20;;;;;;2067368;28;20026;-82
2021/03/10 03:29:01;;;;;;;10.07;6.70;;;3.70;88.20;;;;;;2075284;28;20022;-82
2021/03/10 03:30:04;;;;;;;11.80;7.05;;;3.70;88.10;;;;;;2073136;28;20063;-82
2021/03/10 03:31:05;;;;;;;10.23;6.57;;;3.70;88.00;;;;;;2080873;28;20037;-82
2021/03/10 03:32:06;;;;;;;9.80;6.72;;;3.80;88.10;;;;;;2073101;28;20132;-83
2021/03/10 03:33:09;;;;;;;10.30;6.40;;;3.80;88.00;;;;;;2072892;28;20036;-83
2021/03/10 03:34:11;;;;;;;10.55;6.55;;;3.80;88.00;;;;;;2074824;28;20041;-83
2021/03/10 03:35:15;;;;;;;10.20;6.50;;;3.80;88.00;;;;;;2083523;28;20029;-82
2021/03/10 03:36:16;;;;;;;10.57;6.78;;;3.90;88.00;;;;;;2089157;28;20060;-82
2021/03/10 03:37:17;;;;;;;10.35;6.93;;;3.80;87.90;;;;;;2073112;28;20030;-83
2021/03/10 03:38:19;;;;;;;10.68;6.60;;;3.90;88.00;;;;;;2066750;28;20389;-83
2021/03/10 03:39:21;;;;;;;9.68;6.05;;;3.90;87.90;;;;;;2069301;28;20388;-82
2021/03/10 03:40:23;;;;;;;9.73;6.65;;;3.90;88.00;;;;;;2072505;28;20051;-82
2021/03/10 03:41:24;;;;;;;10.90;7.03;;;3.90;87.90;;;;;;2065477;28;20389;-83
2021/03/10 03:42:25;;;;;;;9.80;6.57;;;3.90;87.90;;;;;;2064670;28;20072;-83
2021/03/10 03:43:27;;;;;;;10.95;6.72;;;3.90;87.90;;;;;;2065275;28;20027;-83
2021/03/10 03:44:27;;;;;;;10.15;7.07;;;4.00;87.90;;;;;;2065015;28;20524;-83
2021/03/10 03:45:28;;;;;;;10.82;7.07;;;4.00;87.90;;;;;;2064913;28;20065;-83
2021/03/10 03:46:33;;;;;;;10.50;6.68;;;4.00;87.90;;;;;;2064702;28;20173;-83
2021/03/10 03:47:34;;;;;;;10.57;6.82;;;4.00;87.90;;;;;;2065385;28;20034;-83
2021/03/10 03:48:35;;;;;;;11.00;7.18;;;4.00;87.80;;;;;;2078354;28;20033;-83
2021/03/10 03:49:36;;;;;;;10.30;6.72;;;4.00;87.80;;;;;;2081408;28;20022;-83
2021/03/10 03:50:39;;;;;;;11.13;7.18;;;4.00;87.80;;;;;;2073018;28;20033;-83
2021/03/10 03:51:39;;;;;;;9.88;6.90;;;4.00;87.80;;;;;;2066000;28;20409;-83
2021/03/10 03:52:42;;;;;;;11.02;7.10;;;4.00;87.80;;;;;;2059113;28;20035;-83
2021/03/10 03:53:42;;;;;;;10.13;6.50;;;4.00;87.80;;;;;;2058084;28;20031;-82
2021/03/10 03:54:43;;;;;;;9.30;6.47;;;4.00;87.80;;;;;;2056563;28;20481;-83
2021/03/10 03:55:44;;;;;;;11.15;7.28;;;4.00;87.90;;;;;;2058924;28;20077;-83
2021/03/10 03:56:45;;;;;;;11.32;6.72;;;4.00;87.90;;;;;;2066830;28;20082;-82
2021/03/10 03:57:45;;;;;;;11.10;6.75;;;4.00;87.90;;;;;;2056955;28;20481;-83
2021/03/10 03:58:46;;;;;;;9.93;6.43;;;4.10;88.00;;;;;;2064157;28;20121;-82
2021/03/10 03:59:47;;;;;;;10.95;6.85;;;4.10;88.00;;;;;;2074370;28;20029;-83
2021/03/10 04:00:47;;;;;;;10.73;6.80;;;4.10;88.00;;;;;;2062908;28;20027;-83
2021/03/10 04:01:48;;;;;;;10.25;6.95;;;4.10;88.00;;;;;;2064909;28;20080;-82
2021/03/10 04:02:48;;;;;;;10.65;7.25;;;4.10;88.00;;;;;;2073220;28;20508;-82
2021/03/10 04:03:49;;;;;;;11.68;7.45;;;4.10;88.00;;;;;;2073112;28;20142;-82
2021/03/10 04:04:50;;;;;;;11.90;7.18;;;4.10;87.90;;;;;;2049682;28;20023;-83
2021/03/10 04:05:50;;;;;;;11.60;7.70;;;4.10;88.00;;;;;;2056253;28;20089;-82
2021/03/10 04:06:51;;;;;;;10.35;6.65;;;4.10;88.00;;;;;;2064774;28;20037;-82
2021/03/10 04:07:54;;;;;;;10.00;6.55;;;4.10;88.00;;;;;;2070422;28;20052;-82
2021/03/10 04:08:55;;;;;;;10.45;7.32;;;4.10;88.00;;;;;;2064274;28;20601;-82
2021/03/10 04:09:55;;;;;;;11.10;7.55;;;4.10;88.00;;;;;;2064685;28;20037;-82
2021/03/10 04:10:56;;;;;;;9.95;6.88;;;4.20;88.10;;;;;;2056590;28;20056;-83
2021/03/10 04:11:56;;;;;;;10.95;7.72;;;4.20;88.10;;;;;;2066119;28;20452;-83
2021/03/10 04:13:00;;;;;;;10.57;7.35;;;4.20;88.10;;;;;;2065121;28;20086;-82
2021/03/10 04:14:00;;;;;;;10.55;7.35;;;4.20;88.10;;;;;;2065868;28;20026;-83
2021/03/10 04:15:01;;;;;;;10.57;6.95;;;4.20;88.00;;;;;;2072421;28;20490;-82
2021/03/10 04:16:02;;;;;;;9.77;6.57;;;4.20;88.00;;;;;;2072821;28;20034;-82
2021/03/10 04:17:02;;;;;;;11.40;7.63;;;4.20;88.00;;;;;;2080852;28;20116;-82
2021/03/10 04:18:04;;;;;;;11.65;7.03;;;4.20;88.00;;;;;;2072992;28;20420;-82
2021/03/10 04:19:05;;;;;;;11.05;7.00;;;4.20;88.00;;;;;;2081838;28;20033;-83
2021/03/10 04:20:17;;;;;;;11.07;7.45;;;4.20;88.00;;;;;;2071847;28;20392;-82
2021/03/10 04:21:18;;;;;;;10.80;6.75;;;4.20;88.10;;;;;;2074003;28;20120;-82
2021/03/10 04:22:19;;;;;;;10.85;7.60;;;4.20;88.00;;;;;;2081159;28;20514;-82
2021/03/10 04:23:19;;;;;;;12.63;7.88;;;4.30;88.10;;;;;;2071972;28;20030;-83
2021/03/10 04:24:20;;;;;;;11.55;7.40;;;4.20;88.60;;;;;;2065491;28;20121;-82
2021/03/10 04:25:21;;;;;;;11.27;7.38;;;4.30;88.10;;;;;;2072999;28;20026;-82
2021/03/10 04:26:22;;;;;;;10.63;7.38;;;4.30;88.10;;;;;;2081261;28;20030;-81
2021/03/10 04:27:23;;;;;;;11.30;7.82;;;4.30;88.10;;;;;;2079757;28;20029;-82
2021/03/10 04:28:23;;;;;;;11.18;7.63;;;4.30;88.00;;;;;;2072852;28;20121;-82
2021/03/10 04:29:24;;;;;;;10.80;7.28;;;4.30;88.00;;;;;;2064444;28;20384;-82
2021/03/10 04:30:25;;;;;;;11.13;6.95;;;4.30;88.00;;;;;;2064178;28;20034;-82
2021/03/10 04:31:25;;;;;;;12.73;8.05;;;4.30;88.10;;;;;;2072415;28;20578;-81
2021/03/10 04:32:26;;;;;;;11.60;7.65;;;4.30;88.10;;;;;;2072601;28;20554;-82
2021/03/10 04:33:27;;;;;;;11.88;7.68;;;4.20;88.10;;;;;;2072781;28;20037;-82
2021/03/10 04:34:27;;;;;;;12.05;7.97;;;4.30;88.10;;;;;;2079929;28;20037;-82
2021/03/10 04:35:28;;;;;;;11.93;7.95;;;4.20;88.20;;;;;;2080897;28;20037;-82
2021/03/10 04:36:29;;;;;;;12.52;7.90;;;4.20;88.20;;;;;;2081573;28;20095;-82
2021/03/10 04:37:29;;;;;;;12.10;7.88;;;4.20;88.30;;;;;;2081175;28;20032;-82
2021/03/10 04:38:30;;;;;;;11.52;7.70;;;4.20;88.30;;;;;;2075433;28;20128;-82
2021/03/10 04:39:31;;;;;;;10.73;7.40;;;4.20;88.40;;;;;;2070926;28;20034;-82
2021/03/10 04:40:31;;;;;;;11.80;7.70;;;4.10;88.40;;;;;;2063804;28;20558;-82
2021/03/10 04:41:32;;;;;;;11.30;7.70;;;4.10;88.40;;;;;;2069214;28;20037;-82
2021/03/10 04:42:32;;;;;;;11.90;7.70;;;4.10;88.50;;;;;;2068575;28;20132;-82
2021/03/10 04:43:33;;;;;;;12.55;7.80;;;4.10;88.50;;;;;;2064584;28;20065;-82
2021/03/10 04:44:34;;;;;;;11.10;7.13;;;4.10;88.50;;;;;;2081007;28;20025;-82
2021/03/10 04:45:34;;;;;;;11.90;7.68;;;4.10;88.50;;;;;;2080852;28;20080;-81
2021/03/10 04:46:35;;;;;;;11.43;7.70;;;4.10;88.60;;;;;;2080764;28;20021;-81
2021/03/10 04:47:36;;;;;;;12.98;8.35;;;4.10;88.60;;;;;;2076816;28;20040;-82
2021/03/10 04:48:36;;;;;;;12.32;7.57;;;4.10;88.60;;;;;;2076104;28;20057;-81
2021/03/10 04:49:37;;;;;;;11.35;7.45;;;4.20;88.60;;;;;;2072766;28;20057;-82
2021/03/10 04:50:38;;;;;;;10.65;7.20;;;4.20;88.60;;;;;;2064725;28;20027;-82
2021/03/10 04:51:38;;;;;;;11.40;7.60;;;4.10;88.50;;;;;;2080659;28;20454;-81
2021/03/10 04:52:39;;;;;;;12.57;8.07;;;4.10;88.50;;;;;;2077388;28;20124;-79
2021/03/10 04:53:40;;;;;;;10.85;7.68;;;4.20;88.60;;;;;;2079727;28;20562;-79
2021/03/10 04:54:40;;;;;;;11.00;7.20;;;4.20;88.50;;;;;;2077839;28;20029;-80
2021/03/10 04:55:41;;;;;;;11.73;7.90;;;4.20;88.60;;;;;;2079674;28;20124;-79
2021/03/10 04:56:42;;;;;;;11.15;7.82;;;4.20;88.60;;;;;;2080748;28;20558;-79
2021/03/10 04:57:42;;;;;;;11.02;7.53;;;4.20;89.20;;;;;;2076753;28;20033;-80
2021/03/10 04:58:43;;;;;;;11.07;7.75;;;4.20;88.60;;;;;;2067176;28;20465;-80
2021/03/10 04:59:44;;;;;;;12.73;8.52;;;4.20;88.60;;;;;;2064520;28;20366;-80
2021/03/10 05:00:45;;;;;;;11.43;7.57;;;4.20;88.60;;;;;;2072212;28;20224;-79
2021/03/10 05:01:46;;;;;;;12.07;8.38;;;4.20;88.60;;;;;;2072578;28;20049;-79
2021/03/10 05:02:46;;;;;;;12.70;8.20;;;4.20;89.20;;;;;;2054727;28;20015;-79
2021/03/10 05:03:47;;;;;;;12.18;8.02;;;4.20;88.60;;;;;;2056633;28;20046;-80
2021/03/10 05:04:48;;;;;;;11.80;7.93;;;4.20;88.60;;;;;;2064572;28;20030;-80
2021/03/10 05:05:48;;;;;;;12.40;8.18;;;4.20;88.60;;;;;;2080276;28;20029;-80
2021/03/10 05:06:49;;;;;;;11.10;7.68;;;4.20;88.60;;;;;;2080863;28;20048;-80
2021/03/10 05:07:50;;;;;;;12.30;7.72;;;4.20;88.70;;;;;;2080805;28;20034;-80
2021/03/10 05:08:50;;;;;;;12.30;7.60;;;4.20;88.70;;;;;;2080368;28;20068;-79
2021/03/10 05:09:51;;;;;;;10.57;7.63;;;4.30;88.70;;;;;;2064339;28;20734;-79
2021/03/10 05:10:51;;;;;;;11.00;7.72;;;4.30;88.70;;;;;;2064409;28;20049;-79
2021/03/10 05:11:52;;;;;;;10.25;7.20;;;4.30;88.70;;;;;;2064597;28;20088;-80
2021/03/10 05:12:53;;;;;;;10.85;7.63;;;4.30;88.70;;;;;;2072834;28;20030;-79
2021/03/10 05:13:53;;;;;;;10.98;7.60;;;4.30;88.60;;;;;;2072073;28;20026;-80
2021/03/10 05:14:54;;;;;;;10.13;7.35;;;4.30;88.60;;;;;;2072831;28;20400;-79
2021/03/10 05:15:54;;;;;;;10.95;7.30;;;4.30;88.60;;;;;;2057770;28;20117;-79
2021/03/10 05:16:55;;;;;;;11.65;7.78;;;4.40;88.70;;;;;;2060037;28;20188;-79
2021/03/10 05:17:55;;;;;;;10.82;8.07;;;4.40;88.60;;;;;;2080504;28;20018;-80
2021/03/10 05:18:56;;;;;;;11.80;8.02;;;4.30;88.50;;;;;;2081217;28;20033;-81
2021/03/10 05:19:57;;;;;;;12.05;8.10;;;4.30;88.60;;;;;;2080885;28;20028;-82
2021/03/10 05:20:58;;;;;;;11.32;7.60;;;4.30;88.70;;;;;;2081220;28;20061;-82
2021/03/10 05:21:59;;;;;;;11.27;7.30;;;4.30;88.60;;;;;;2080644;28;20073;-82
2021/03/10 05:22:59;;;;;;;12.80;8.18;;;4.30;88.70;;;;;;2080230;28;20025;-82
2021/03/10 05:24:00;;;;;;;11.98;7.80;;;4.30;88.70;;;;;;2072109;28;20145;-82
2021/03/10 05:25:00;;;;;;;11.48;7.55;;;4.30;88.70;;;;;;2070801;28;20064;-81
2021/03/10 05:26:02;;;;;;;13.18;8.00;;;4.30;88.80;;;;;;2072243;28;20049;-81